Time;durP1;ratioP1;P1;durP2;ratioP2;P2;SDS_P1;SDS_P2;PMS_P1;PMS_P2;Temp;Humidity;BMP_temperature;BMP_pressure;BME280_temperature;BME280_humidity;BME280_pressure;Samples;Min_cycle;Max_cycle;Signal;HPM_P1;HPM_P2
2021/12/04 01:44:49;;;;;;;28.58;16.23;;;103.20;2227.20;;;;;;5060076;23;20074;-78
2021/12/04 10:18:43;;;;;;;44.80;33.58;;;154.20;2252.80;;;;;;4956071;29;20054;-80
2021/12/04 10:21:16;;;;;;;30.65;21.13;;;154.40;2252.80;;;;;;4932638;29;20364;-81
2021/12/04 10:33:43;;;;;;;32.13;22.65;;;179.40;2252.80;;;;;;4952201;29;20043;-87
2021/12/04 11:19:09;;;;;;;24.13;18.02;;;205.20;2252.80;;;;;;5017254;28;20036;-87
2021/12/04 11:42:56;;;;;;;33.88;23.17;;;230.60;2252.80;;;;;;5016094;28;20022;-84
2021/12/04 11:45:29;;;;;;;33.83;22.05;;;230.50;2252.80;;;;;;4998034;28;20163;-80
2021/12/04 11:47:58;;;;;;;45.17;29.55;;;230.50;2252.80;;;;;;4997980;28;20485;-83
2021/12/04 11:50:37;;;;;;;26.40;20.52;;;230.60;2252.80;;;;;;4998364;28;20037;-85
2021/12/04 11:53:12;;;;;;;25.38;19.63;;;230.90;2252.80;;;;;;4997900;28;20076;-83
2021/12/04 11:55:43;;;;;;;23.15;16.98;;;231.20;2252.80;;;;;;4997923;28;20045;-83
2021/12/04 11:58:24;;;;;;;18.77;13.52;;;231.20;2252.80;;;;;;4998125;28;20180;-82
2021/12/04 12:00:54;;;;;;;20.33;16.23;;;231.20;2252.80;;;;;;4997892;28;20026;-82
2021/12/04 12:03:27;;;;;;;28.83;19.40;;;230.90;2252.80;;;;;;4997882;28;20057;-81
2021/12/04 12:06:00;;;;;;;32.25;21.60;;;230.60;2252.80;;;;;;4997917;28;20030;-79
2021/12/04 12:08:33;;;;;;;29.00;20.00;;;230.60;2252.80;;;;;;4997444;28;20033;-78
2021/12/04 12:11:01;;;;;;;;;;;230.40;2252.80;;;;;;4998148;28;20049;-76
2021/12/04 12:13:33;;;;;;;26.13;17.65;;;205.70;2252.80;;;;;;4997605;28;20389;-77
2021/12/04 12:16:21;;;;;;;19.33;13.95;;;205.60;2252.80;;;;;;5015128;28;20018;-75
2021/12/04 12:18:57;;;;;;;32.03;21.67;;;230.50;2252.80;;;;;;4997552;28;20022;-78
2021/12/04 12:21:59;;;;;;;19.13;14.38;;;230.50;2252.80;;;;;;5014525;28;20362;-76
2021/12/04 12:36:09;;;;;;;24.60;17.52;;;256.40;2252.80;;;;;;5014626;28;20084;-75
2021/12/04 12:38:47;;;;;;;24.23;15.73;;;231.20;2252.80;;;;;;4997240;28;20022;-78
2021/12/04 12:41:37;;;;;;;25.17;18.60;;;230.90;2252.80;;;;;;4997319;28;20060;-75
2021/12/04 12:44:14;;;;;;;21.70;17.58;;;230.70;2252.80;;;;;;4997139;28;20084;-78
2021/12/04 12:46:53;;;;;;;25.75;18.90;;;230.60;2252.80;;;;;;4996226;28;20065;-77
2021/12/04 12:49:45;;;;;;;26.33;17.60;;;230.50;2252.80;;;;;;5014559;28;20048;-75
2021/12/04 12:52:19;;;;;;;26.90;18.40;;;230.50;2252.80;;;;;;4992279;28;20132;-76
2021/12/04 12:55:02;;;;;;;36.20;17.05;;;230.40;2252.80;;;;;;4996963;28;20037;-78
2021/12/04 12:57:41;;;;;;;28.48;21.77;;;205.70;2252.80;;;;;;4996100;28;20046;-78
2021/12/04 13:14:14;;;;;;;33.13;25.00;;;230.60;2252.80;;;;;;5014299;28;20076;-83
2021/12/04 13:16:47;;;;;;;34.25;18.95;;;230.80;2252.80;;;;;;4996457;28;20026;-82
2021/12/04 13:19:15;;;;;;;28.00;20.67;;;230.80;2252.80;;;;;;4996647;28;20026;-80
2021/12/04 13:21:45;;;;;;;21.17;15.15;;;231.00;2252.80;;;;;;4996445;28;20026;-77
2021/12/04 13:24:13;;;;;;;67.38;47.17;;;230.90;2252.80;;;;;;4996329;28;20040;-80
2021/12/04 13:26:48;;;;;;;35.78;26.65;;;230.60;2252.80;;;;;;4996526;28;20022;-80
2021/12/04 13:29:19;;;;;;;29.40;18.98;;;230.70;2252.80;;;;;;4996469;28;20025;-77
2021/12/04 13:31:44;;;;;;;35.88;25.50;;;230.60;2252.80;;;;;;4996302;28;20022;-80
2021/12/04 13:34:13;;;;;;;26.25;17.80;;;230.60;2252.80;;;;;;4996375;28;20357;-76
2021/12/04 13:36:45;;;;;;;29.35;17.25;;;230.40;2252.80;;;;;;4996417;28;20026;-77
2021/12/04 13:39:13;;;;;;;25.67;17.30;;;205.60;2252.80;;;;;;4995998;28;20077;-78
2021/12/04 13:41:44;;;;;;;24.35;17.45;;;205.50;2252.80;;;;;;4996200;28;20018;-80
2021/12/04 13:44:12;;;;;;;40.75;24.45;;;205.30;2252.80;;;;;;4996393;28;20056;-81
2021/12/04 13:46:45;;;;;;;37.55;24.05;;;205.30;2252.80;;;;;;4995959;28;20083;-81
2021/12/04 13:49:16;;;;;;;31.38;21.08;;;205.30;2252.80;;;;;;4996386;28;20113;-81
2021/12/04 13:51:42;;;;;;;38.38;24.92;;;205.20;2252.80;;;;;;4995957;28;20125;-82
2021/12/04 13:54:10;;;;;;;33.65;25.50;;;205.20;2252.80;;;;;;5013840;28;20061;-78
2021/12/04 13:56:36;;;;;;;36.72;23.83;;;205.30;2252.80;;;;;;4995693;28;20490;-77
2021/12/04 13:59:05;;;;;;;49.38;32.13;;;205.40;2252.80;;;;;;4999662;28;20138;-79
2021/12/04 14:01:42;;;;;;;49.60;33.17;;;205.40;2252.80;;;;;;5000104;28;20484;-75
2021/12/04 14:04:17;;;;;;;49.33;34.47;;;205.30;2252.80;;;;;;5000182;28;20021;-78
2021/12/04 14:07:00;;;;;;;41.10;29.42;;;205.30;2252.80;;;;;;4999868;28;20034;-76
2021/12/04 14:09:38;;;;;;;51.83;36.47;;;205.30;2252.80;;;;;;5000161;28;20046;-80
2021/12/04 14:12:06;;;;;;;45.17;33.05;;;205.20;2252.80;;;;;;4999907;28;20053;-80
2021/12/04 14:14:34;;;;;;;91.38;60.03;;;205.20;2252.80;;;;;;4999578;28;20366;-79
2021/12/04 14:17:18;;;;;;;78.68;54.45;;;205.20;2252.80;;;;;;4999847;28;20025;-76
2021/12/04 14:19:45;;;;;;;65.95;44.92;;;205.20;2252.80;;;;;;4999608;28;20041;-80
2021/12/04 14:22:15;;;;;;;57.72;40.72;;;205.10;2252.80;;;;;;4999741;28;20087;-81
2021/12/04 14:24:44;;;;;;;54.00;38.22;;;205.20;2252.80;;;;;;4999711;28;20045;-77
2021/12/04 14:27:15;;;;;;;52.13;38.58;;;205.00;2252.80;;;;;;5016705;28;20037;-76
2021/12/04 14:29:46;;;;;;;81.35;54.97;;;204.90;2252.80;;;;;;4999685;28;20025;-79
2021/12/04 14:32:13;;;;;;;59.35;44.58;;;204.80;2252.80;;;;;;4999585;28;20026;-77
2021/12/04 14:34:39;;;;;;;53.05;36.83;;;180.10;2252.80;;;;;;4999209;28;20030;-74
2021/12/04 14:37:15;;;;;;;55.92;39.38;;;180.10;2252.80;;;;;;4999527;28;20464;-75
2021/12/04 14:39:47;;;;;;;55.78;38.85;;;180.10;2252.80;;;;;;4999454;28;20049;-78
2021/12/04 14:42:17;;;;;;;61.45;42.38;;;180.00;2252.80;;;;;;4998807;28;20052;-77
2021/12/04 14:44:52;;;;;;;60.33;41.00;;;180.00;2252.80;;;;;;4999285;28;20045;-75
2021/12/04 14:47:20;;;;;;;54.03;41.03;;;179.90;2252.80;;;;;;5017168;28;20103;-79
2021/12/04 14:49:48;;;;;;;56.55;42.35;;;179.90;2252.80;;;;;;4998270;28;20022;-75
2021/12/04 14:52:22;;;;;;;78.78;54.55;;;179.80;2252.80;;;;;;4997641;28;20022;-78
2021/12/04 14:54:50;;;;;;;75.00;51.47;;;179.80;2252.80;;;;;;5014928;28;20029;-78
2021/12/04 14:57:23;;;;;;;77.03;49.33;;;179.90;2252.80;;;;;;5016273;28;20038;-78
2021/12/04 15:00:12;;;;;;;69.93;47.72;;;179.90;2252.80;;;;;;4998790;28;20021;-77
2021/12/04 15:02:38;;;;;;;67.53;44.67;;;179.80;2252.80;;;;;;5016592;28;20026;-78
2021/12/04 15:05:05;;;;;;;65.32;45.10;;;179.80;2252.80;;;;;;4998799;28;20026;-76
2021/12/04 15:07:33;;;;;;;75.63;50.22;;;179.80;2252.80;;;;;;4998898;28;20018;-78
2021/12/04 15:10:17;;;;;;;76.72;51.90;;;179.80;2252.80;;;;;;4997739;28;20021;-79
2021/12/04 15:12:44;;;;;;;98.55;66.07;;;179.80;2252.80;;;;;;4998878;28;20026;-78
2021/12/04 15:15:11;;;;;;;116.20;85.90;;;179.90;2252.80;;;;;;4998843;28;20112;-76
2021/12/04 15:17:41;;;;;;;124.50;87.15;;;180.10;2252.80;;;;;;4998496;28;20030;-77
2021/12/04 15:20:18;;;;;;;116.15;79.75;;;179.80;2252.80;;;;;;4999678;28;20522;-81
2021/12/04 15:22:46;;;;;;;94.35;67.60;;;179.80;2252.80;;;;;;5009834;28;20022;-79
2021/12/04 15:25:16;;;;;;;93.20;64.78;;;179.70;2252.80;;;;;;4998746;28;20058;-78
2021/12/04 15:27:42;;;;;;;99.55;66.38;;;179.70;2252.80;;;;;;5016762;28;20025;-82
2021/12/04 15:30:14;;;;;;;94.63;63.97;;;180.00;2252.80;;;;;;4998236;28;20485;-80
2021/12/04 15:32:42;;;;;;;113.80;80.23;;;179.60;2252.80;;;;;;4998672;28;20026;-80
2021/12/04 15:35:45;;;;;;;108.78;75.90;;;179.50;2252.80;;;;;;4998247;28;20079;-81
2021/12/04 15:38:10;;;;;;;74.30;54.70;;;179.40;2252.80;;;;;;5014953;28;20021;-78
2021/12/04 15:46:58;;;;;;;98.22;65.10;;;179.40;2252.80;;;;;;4955336;29;20053;-78
2021/12/04 15:55:12;;;;;;;104.63;69.80;;;179.30;2252.80;;;;;;5015886;28;20063;-82
2021/12/04 15:57:39;;;;;;;105.35;69.07;;;179.30;2252.80;;;;;;4994777;28;20475;-82
2021/12/04 16:00:11;;;;;;;116.22;72.15;;;179.30;2252.80;;;;;;4994842;28;20073;-78
2021/12/04 16:02:43;;;;;;;125.07;73.57;;;179.40;2252.80;;;;;;4994985;28;20019;-79
2021/12/04 16:05:31;;;;;;;65.78;41.28;;;179.40;2252.80;;;;;;4994475;28;20066;-78
2021/12/04 16:08:07;;;;;;;73.57;49.05;;;179.30;2252.80;;;;;;4994711;28;20142;-79
2021/12/04 16:10:38;;;;;;;116.90;82.90;;;179.40;2252.80;;;;;;4994810;28;20022;-83
2021/12/04 16:13:08;;;;;;;110.43;77.13;;;179.40;2252.80;;;;;;4994398;28;20056;-79
2021/12/04 16:15:34;;;;;;;114.68;56.92;;;179.30;2252.80;;;;;;4994752;28;20454;-79
2021/12/04 16:18:00;;;;;;;110.28;72.22;;;179.50;2252.80;;;;;;4994512;28;20034;-81
2021/12/04 16:20:29;;;;;;;100.10;64.18;;;179.60;2252.80;;;;;;4994405;28;20029;-80
2021/12/04 16:22:58;;;;;;;98.47;63.72;;;179.60;2252.80;;;;;;4994429;28;20474;-83
2021/12/04 16:25:35;;;;;;;107.68;70.40;;;179.70;2252.80;;;;;;4994211;28;20497;-82
2021/12/04 16:38:28;;;;;;;102.95;70.70;;;179.70;2252.80;;;;;;4995482;28;20022;-83
2021/12/04 16:40:56;;;;;;;83.38;57.20;;;179.60;2252.80;;;;;;4993770;28;20375;-78
2021/12/04 16:43:35;;;;;;;84.45;59.47;;;179.70;2252.80;;;;;;4993898;28;20030;-80
2021/12/04 16:46:10;;;;;;;109.05;67.20;;;179.70;2252.80;;;;;;4993882;28;20117;-88
2021/12/04 16:48:41;;;;;;;119.25;77.90;;;179.70;2252.80;;;;;;4993446;28;20116;-80
2021/12/04 16:59:12;;;;;;;111.40;78.65;;;179.50;2252.80;;;;;;5014397;28;20025;-82
2021/12/04 17:01:40;;;;;;;101.40;67.45;;;179.30;2252.80;;;;;;4996708;28;20072;-80
2021/12/04 17:04:07;;;;;;;81.47;58.08;;;154.50;2252.80;;;;;;4996913;28;20116;-79
2021/12/04 17:06:34;;;;;;;78.57;54.55;;;179.20;2252.80;;;;;;4996744;28;20045;-78
2021/12/04 17:09:00;;;;;;;80.30;59.33;;;154.50;2252.80;;;;;;4996518;28;20025;-79
2021/12/04 17:11:26;;;;;;;205.27;133.85;;;154.40;2252.80;;;;;;4996727;28;20022;-81
2021/12/04 17:13:52;;;;;;;222.98;147.18;;;179.20;2252.80;;;;;;4996890;28;20048;-82
2021/12/04 17:16:25;;;;;;;110.40;79.35;;;179.30;2252.80;;;;;;4996483;28;20462;-83
2021/12/04 17:18:56;;;;;;;153.05;104.40;;;179.30;2252.80;;;;;;4996709;28;20029;-80
2021/12/04 17:21:22;;;;;;;390.58;237.65;;;179.20;2252.80;;;;;;4996633;28;20037;-79
2021/12/04 17:23:48;;;;;;;206.05;130.75;;;154.40;2252.80;;;;;;4996226;28;20026;-79
2021/12/04 17:26:14;;;;;;;199.27;126.72;;;154.30;2252.80;;;;;;4996524;28;20030;-80
2021/12/04 17:28:44;;;;;;;217.95;128.27;;;154.20;2252.80;;;;;;4996211;28;20030;-77
2021/12/04 17:31:16;;;;;;;286.48;166.57;;;154.30;2252.80;;;;;;4996530;28;20092;-81
2021/12/04 17:33:45;;;;;;;175.57;107.37;;;154.40;2252.80;;;;;;4996200;28;20025;-77
2021/12/04 17:36:12;;;;;;;268.95;159.07;;;154.20;2252.80;;;;;;4996040;28;20319;-80
2021/12/04 17:38:43;;;;;;;231.75;138.15;;;154.20;2252.80;;;;;;4996452;28;20030;-80
2021/12/04 17:41:10;;;;;;;220.82;134.70;;;154.10;2252.80;;;;;;4996462;28;20025;-80
2021/12/04 17:43:37;;;;;;;236.43;154.35;;;154.10;2252.80;;;;;;4996021;28;20033;-84
2021/12/04 17:46:03;;;;;;;226.73;151.90;;;154.10;2252.80;;;;;;4996255;28;20116;-86
2021/12/04 17:48:31;;;;;;;187.75;120.78;;;154.30;2252.80;;;;;;4996640;28;20126;-84
2021/12/04 17:50:59;;;;;;;195.15;124.40;;;154.40;2252.80;;;;;;4980129;28;20030;-79
2021/12/04 17:53:25;;;;;;;245.07;162.40;;;154.30;2252.80;;;;;;4996031;28;20032;-82
2021/12/04 17:55:52;;;;;;;200.25;137.35;;;154.30;2252.80;;;;;;4995907;28;20080;-86
2021/12/04 17:58:18;;;;;;;192.98;124.45;;;154.40;2252.80;;;;;;4979657;28;20022;-83
2021/12/04 18:00:49;;;;;;;197.35;118.25;;;154.30;2252.80;;;;;;4996113;28;20021;-85
2021/12/04 18:03:20;;;;;;;167.90;102.72;;;154.20;2252.80;;;;;;4998375;28;20022;-87
2021/12/04 18:06:22;;;;;;;206.85;124.75;;;154.10;2252.80;;;;;;4996872;28;20048;-85
2021/12/04 18:08:53;;;;;;;189.93;120.95;;;154.10;2252.80;;;;;;5014182;28;20052;-86
2021/12/04 18:11:27;;;;;;;154.52;107.55;;;154.10;2252.80;;;;;;4996957;28;20025;-80
2021/12/04 18:14:01;;;;;;;158.27;108.95;;;153.80;2252.80;;;;;;4996814;28;20049;-85
2021/12/04 18:16:36;;;;;;;157.48;111.05;;;153.80;2252.80;;;;;;4997889;28;20406;-84
2021/12/04 18:19:04;;;;;;;146.45;102.72;;;153.90;2252.80;;;;;;4998075;28;20390;-84
2021/12/04 18:21:44;;;;;;;164.60;112.55;;;153.90;2252.80;;;;;;4993923;28;20038;-85
2021/12/04 19:02:00;;;;;;;194.60;133.07;;;128.30;2252.80;;;;;;4972448;28;20395;-82
2021/12/04 19:04:26;;;;;;;170.95;114.95;;;128.40;2252.80;;;;;;4961315;28;20042;-80
2021/12/04 19:06:53;;;;;;;165.48;113.70;;;128.50;2252.80;;;;;;4960089;28;20362;-80
